sensor_id;sensor_type;location;lat;lon;timestamp;temperature;humidity
9800;DHT22;4939;52.00085300;4.17406100;2023-04-15T00:01:19;10.10;99.90
9800;DHT22;4939;52.00085300;4.17406100;2023-04-15T00:03:45;10.10;99.90
9800;DHT22;4939;52.00085300;4.17406100;2023-04-15T00:08:38;10.10;99.90
9800;DHT22;4939;52.00085300;4.17406100;2023-04-15T00:11:04;10.20;99.90
9800;DHT22;4939;52.00085300;4.17406100;2023-04-15T00:13:33;10.20;99.90
9800;DHT22;4939;52.00085300;4.17406100;2023-04-15T00:15:59;10.20;99.90
9800;DHT22;4939;52.00085300;4.17406100;2023-04-15T00:18:26;10.20;99.90
9800;DHT22;4939;52.00085300;4.17406100;2023-04-15T00:20:51;10.20;99.90
9800;DHT22;4939;52.00085300;4.17406100;2023-04-15T00:23:18;11.50;99.90
9800;DHT22;4939;52.00085300;4.17406100;2023-04-15T00:25:43;10.20;99.90
9800;DHT22;4939;52.00085300;4.17406100;2023-04-15T00:28:09;10.20;99.90
9800;DHT22;4939;52.00085300;4.17406100;2023-04-15T00:30:35;10.30;99.90
9800;DHT22;4939;52.00085300;4.17406100;2023-04-15T00:33:01;10.30;99.90
9800;DHT22;4939;52.00085300;4.17406100;2023-04-15T00:35:28;10.30;99.90
9800;DHT22;4939;52.00085300;4.17406100;2023-04-15T00:37:54;10.30;99.90
9800;DHT22;4939;52.00085300;4.17406100;2023-04-15T00:40:20;10.30;99.90
9800;DHT22;4939;52.00085300;4.17406100;2023-04-15T00:42:46;10.50;99.90
9800;DHT22;4939;52.00085300;4.17406100;2023-04-15T00:45:12;10.30;99.90
9800;DHT22;4939;52.00085300;4.17406100;2023-04-15T00:47:40;10.30;99.90
9800;DHT22;4939;52.00085300;4.17406100;2023-04-15T00:50:08;10.30;99.90
9800;DHT22;4939;52.00085300;4.17406100;2023-04-15T00:52:34;10.30;99.90
9800;DHT22;4939;52.00085300;4.17406100;2023-04-15T00:55:00;10.30;99.90
9800;DHT22;4939;52.00085300;4.17406100;2023-04-15T00:57:27;10.30;99.90
9800;DHT22;4939;52.00085300;4.17406100;2023-04-15T00:59:54;10.30;99.90
9800;DHT22;4939;52.00085300;4.17406100;2023-04-15T01:02:20;10.30;99.90
9800;DHT22;4939;52.00085300;4.17406100;2023-04-15T01:04:46;10.20;99.90
9800;DHT22;4939;52.00085300;4.17406100;2023-04-15T01:07:13;10.20;99.90
9800;DHT22;4939;52.00085300;4.17406100;2023-04-15T01:09:39;10.20;99.90
9800;DHT22;4939;52.00085300;4.17406100;2023-04-15T01:12:06;10.20;99.90
9800;DHT22;4939;52.00085300;4.17406100;2023-04-15T01:14:33;10.10;99.90
9800;DHT22;4939;52.00085300;4.17406100;2023-04-15T01:16:59;10.10;99.90
9800;DHT22;4939;52.00085300;4.17406100;2023-04-15T01:19:25;10.10;99.90
9800;DHT22;4939;52.00085300;4.17406100;2023-04-15T01:21:52;10.10;99.90
9800;DHT22;4939;52.00085300;4.17406100;2023-04-15T01:26:44;10.00;99.90
9800;DHT22;4939;52.00085300;4.17406100;2023-04-15T01:29:10;10.00;99.90
9800;DHT22;4939;52.00085300;4.17406100;2023-04-15T01:31:36;10.00;99.90
9800;DHT22;4939;52.00085300;4.17406100;2023-04-15T01:34:02;10.00;99.90
9800;DHT22;4939;52.00085300;4.17406100;2023-04-15T01:36:27;10.00;99.90
9800;DHT22;4939;52.00085300;4.17406100;2023-04-15T01:38:55;9.90;99.90
9800;DHT22;4939;52.00085300;4.17406100;2023-04-15T01:41:27;9.90;99.90
9800;DHT22;4939;52.00085300;4.17406100;2023-04-15T01:43:53;9.90;99.90
9800;DHT22;4939;52.00085300;4.17406100;2023-04-15T01:46:19;9.90;99.90
9800;DHT22;4939;52.00085300;4.17406100;2023-04-15T01:48:45;9.90;99.90
9800;DHT22;4939;52.00085300;4.17406100;2023-04-15T01:51:11;9.90;99.90
9800;DHT22;4939;52.00085300;4.17406100;2023-04-15T01:53:37;9.80;99.90
9800;DHT22;4939;52.00085300;4.17406100;2023-04-15T01:56:03;9.90;99.90
9800;DHT22;4939;52.00085300;4.17406100;2023-04-15T02:00:55;9.90;99.90
9800;DHT22;4939;52.00085300;4.17406100;2023-04-15T02:03:21;9.80;99.90
9800;DHT22;4939;52.00085300;4.17406100;2023-04-15T02:05:47;9.80;99.90
9800;DHT22;4939;52.00085300;4.17406100;2023-04-15T02:08:13;9.80;99.90
9800;DHT22;4939;52.00085300;4.17406100;2023-04-15T02:10:39;9.70;99.90
9800;DHT22;4939;52.00085300;4.17406100;2023-04-15T02:15:38;9.70;99.90
9800;DHT22;4939;52.00085300;4.17406100;2023-04-15T02:18:04;9.70;99.90
9800;DHT22;4939;52.00085300;4.17406100;2023-04-15T02:20:30;9.70;99.90
9800;DHT22;4939;52.00085300;4.17406100;2023-04-15T02:22:56;9.60;99.90
9800;DHT22;4939;52.00085300;4.17406100;2023-04-15T02:25:22;9.60;99.90
9800;DHT22;4939;52.00085300;4.17406100;2023-04-15T02:27:48;9.60;99.90
9800;DHT22;4939;52.00085300;4.17406100;2023-04-15T02:30:13;9.60;99.90
9800;DHT22;4939;52.00085300;4.17406100;2023-04-15T02:32:40;9.60;99.90
9800;DHT22;4939;52.00085300;4.17406100;2023-04-15T02:35:09;9.70;99.90
9800;DHT22;4939;52.00085300;4.17406100;2023-04-15T02:37:36;9.60;99.90
9800;DHT22;4939;52.00085300;4.17406100;2023-04-15T02:40:08;9.60;99.90
9800;DHT22;4939;52.00085300;4.17406100;2023-04-15T02:42:39;9.60;99.90
9800;DHT22;4939;52.00085300;4.17406100;2023-04-15T02:45:05;9.50;99.90
9800;DHT22;4939;52.00085300;4.17406100;2023-04-15T02:47:35;9.50;99.90
9800;DHT22;4939;52.00085300;4.17406100;2023-04-15T02:50:02;9.50;99.90
9800;DHT22;4939;52.00085300;4.17406100;2023-04-15T02:52:28;9.50;63.80
9800;DHT22;4939;52.00085300;4.17406100;2023-04-15T02:54:54;9.50;99.90
9800;DHT22;4939;52.00085300;4.17406100;2023-04-15T02:57:25;9.50;99.90
9800;DHT22;4939;52.00085300;4.17406100;2023-04-15T02:59:52;9.40;99.90
9800;DHT22;4939;52.00085300;4.17406100;2023-04-15T03:02:18;9.40;99.90
9800;DHT22;4939;52.00085300;4.17406100;2023-04-15T03:04:44;9.40;1.00
9800;DHT22;4939;52.00085300;4.17406100;2023-04-15T03:07:09;9.40;1.00
9800;DHT22;4939;52.00085300;4.17406100;2023-04-15T03:09:35;9.40;1.00
9800;DHT22;4939;52.00085300;4.17406100;2023-04-15T03:12:01;9.40;99.90
9800;DHT22;4939;52.00085300;4.17406100;2023-04-15T03:14:27;9.40;99.90
9800;DHT22;4939;52.00085300;4.17406100;2023-04-15T03:16:53;9.30;99.90
9800;DHT22;4939;52.00085300;4.17406100;2023-04-15T03:19:18;9.30;99.90
9800;DHT22;4939;52.00085300;4.17406100;2023-04-15T03:24:10;9.30;1.00
9800;DHT22;4939;52.00085300;4.17406100;2023-04-15T03:26:36;9.20;1.00
9800;DHT22;4939;52.00085300;4.17406100;2023-04-15T03:29:02;9.20;1.00
9800;DHT22;4939;52.00085300;4.17406100;2023-04-15T03:33:54;9.20;1.00
9800;DHT22;4939;52.00085300;4.17406100;2023-04-15T03:36:20;9.20;16.30
9800;DHT22;4939;52.00085300;4.17406100;2023-04-15T03:38:45;9.20;1.00
9800;DHT22;4939;52.00085300;4.17406100;2023-04-15T03:41:11;9.10;99.90
9800;DHT22;4939;52.00085300;4.17406100;2023-04-15T03:43:37;9.10;99.90
9800;DHT22;4939;52.00085300;4.17406100;2023-04-15T03:48:29;9.00;99.90
9800;DHT22;4939;52.00085300;4.17406100;2023-04-15T03:50:54;9.00;99.90
9800;DHT22;4939;52.00085300;4.17406100;2023-04-15T03:53:20;9.00;1.00
9800;DHT22;4939;52.00085300;4.17406100;2023-04-15T03:55:46;8.90;1.00
9800;DHT22;4939;52.00085300;4.17406100;2023-04-15T03:58:12;9.00;1.00
9800;DHT22;4939;52.00085300;4.17406100;2023-04-15T04:00:38;8.90;1.00
9800;DHT22;4939;52.00085300;4.17406100;2023-04-15T04:03:04;8.90;1.00
9800;DHT22;4939;52.00085300;4.17406100;2023-04-15T04:05:30;8.90;1.00
9800;DHT22;4939;52.00085300;4.17406100;2023-04-15T04:07:56;8.90;1.00
9800;DHT22;4939;52.00085300;4.17406100;2023-04-15T04:10:21;8.80;1.00
9800;DHT22;4939;52.00085300;4.17406100;2023-04-15T04:15:13;8.80;1.00
9800;DHT22;4939;52.00085300;4.17406100;2023-04-15T04:20:05;8.80;59.60
9800;DHT22;4939;52.00085300;4.17406100;2023-04-15T04:22:39;8.70;65.20
9800;DHT22;4939;52.00085300;4.17406100;2023-04-15T04:25:06;8.70;99.90
9800;DHT22;4939;52.00085300;4.17406100;2023-04-15T04:27:33;8.70;99.90
9800;DHT22;4939;52.00085300;4.17406100;2023-04-15T04:29:59;8.70;99.90
9800;DHT22;4939;52.00085300;4.17406100;2023-04-15T04:32:25;8.70;99.90
9800;DHT22;4939;52.00085300;4.17406100;2023-04-15T04:34:50;8.60;99.90
9800;DHT22;4939;52.00085300;4.17406100;2023-04-15T04:37:16;8.60;99.90
9800;DHT22;4939;52.00085300;4.17406100;2023-04-15T04:39:42;8.60;99.90
9800;DHT22;4939;52.00085300;4.17406100;2023-04-15T04:42:07;8.60;99.90
9800;DHT22;4939;52.00085300;4.17406100;2023-04-15T04:46:59;8.50;99.90
9800;DHT22;4939;52.00085300;4.17406100;2023-04-15T04:51:51;8.50;99.90
9800;DHT22;4939;52.00085300;4.17406100;2023-04-15T04:54:17;8.40;99.90
9800;DHT22;4939;52.00085300;4.17406100;2023-04-15T04:56:42;8.50;99.90
9800;DHT22;4939;52.00085300;4.17406100;2023-04-15T04:59:08;8.40;99.90
9800;DHT22;4939;52.00085300;4.17406100;2023-04-15T05:01:34;8.40;99.90
9800;DHT22;4939;52.00085300;4.17406100;2023-04-15T05:06:26;8.40;99.90
9800;DHT22;4939;52.00085300;4.17406100;2023-04-15T05:08:52;8.40;99.90
9800;DHT22;4939;52.00085300;4.17406100;2023-04-15T05:11:17;8.40;99.90
9800;DHT22;4939;52.00085300;4.17406100;2023-04-15T05:13:43;8.30;99.90
9800;DHT22;4939;52.00085300;4.17406100;2023-04-15T05:16:09;8.40;99.90
9800;DHT22;4939;52.00085300;4.17406100;2023-04-15T05:18:35;8.40;99.90
9800;DHT22;4939;52.00085300;4.17406100;2023-04-15T05:21:01;8.40;99.90
9800;DHT22;4939;52.00085300;4.17406100;2023-04-15T05:23:27;8.40;99.90
9800;DHT22;4939;52.00085300;4.17406100;2023-04-15T05:25:52;8.40;99.90
9800;DHT22;4939;52.00085300;4.17406100;2023-04-15T05:28:18;8.40;99.90
9800;DHT22;4939;52.00085300;4.17406100;2023-04-15T05:30:44;8.40;99.90
9800;DHT22;4939;52.00085300;4.17406100;2023-04-15T05:33:10;8.40;99.90
9800;DHT22;4939;52.00085300;4.17406100;2023-04-15T05:35:36;8.50;99.90
9800;DHT22;4939;52.00085300;4.17406100;2023-04-15T05:38:02;8.50;99.90
9800;DHT22;4939;52.00085300;4.17406100;2023-04-15T05:40:29;8.50;99.90
9800;DHT22;4939;52.00085300;4.17406100;2023-04-15T05:42:55;8.50;99.90
9800;DHT22;4939;52.00085300;4.17406100;2023-04-15T05:47:47;8.60;99.90
9800;DHT22;4939;52.00085300;4.17406100;2023-04-15T05:50:15;8.70;99.90
9800;DHT22;4939;52.00085300;4.17406100;2023-04-15T05:52:41;8.70;99.90
9800;DHT22;4939;52.00085300;4.17406100;2023-04-15T05:55:07;8.80;99.90
9800;DHT22;4939;52.00085300;4.17406100;2023-04-15T05:57:33;8.90;99.90
9800;DHT22;4939;52.00085300;4.17406100;2023-04-15T05:59:58;9.00;99.90
9800;DHT22;4939;52.00085300;4.17406100;2023-04-15T06:02:24;9.10;99.90
9800;DHT22;4939;52.00085300;4.17406100;2023-04-15T06:04:50;9.20;99.90
9800;DHT22;4939;52.00085300;4.17406100;2023-04-15T06:07:16;9.20;99.90
9800;DHT22;4939;52.00085300;4.17406100;2023-04-15T06:12:09;9.40;99.90
9800;DHT22;4939;52.00085300;4.17406100;2023-04-15T06:14:39;9.50;99.90
9800;DHT22;4939;52.00085300;4.17406100;2023-04-15T06:17:05;9.60;99.90
9800;DHT22;4939;52.00085300;4.17406100;2023-04-15T06:19:31;9.60;99.90
9800;DHT22;4939;52.00085300;4.17406100;2023-04-15T06:21:58;9.80;99.90
9800;DHT22;4939;52.00085300;4.17406100;2023-04-15T06:24:23;9.80;99.90
9800;DHT22;4939;52.00085300;4.17406100;2023-04-15T06:26:49;9.90;99.90
9800;DHT22;4939;52.00085300;4.17406100;2023-04-15T06:29:15;9.90;99.90
9800;DHT22;4939;52.00085300;4.17406100;2023-04-15T06:31:41;10.00;99.90
9800;DHT22;4939;52.00085300;4.17406100;2023-04-15T06:34:07;10.10;99.90
9800;DHT22;4939;52.00085300;4.17406100;2023-04-15T06:38:59;10.20;99.90
9800;DHT22;4939;52.00085300;4.17406100;2023-04-15T06:41:25;10.20;99.90
9800;DHT22;4939;52.00085300;4.17406100;2023-04-15T06:43:51;10.20;99.90
9800;DHT22;4939;52.00085300;4.17406100;2023-04-15T06:46:17;10.20;99.90
9800;DHT22;4939;52.00085300;4.17406100;2023-04-15T06:48:43;10.40;99.90
9800;DHT22;4939;52.00085300;4.17406100;2023-04-15T06:51:08;10.40;99.90
9800;DHT22;4939;52.00085300;4.17406100;2023-04-15T06:53:34;10.60;99.90
9800;DHT22;4939;52.00085300;4.17406100;2023-04-15T06:56:06;10.60;99.90
9800;DHT22;4939;52.00085300;4.17406100;2023-04-15T06:58:32;10.60;99.90
9800;DHT22;4939;52.00085300;4.17406100;2023-04-15T07:00:58;10.60;99.90
9800;DHT22;4939;52.00085300;4.17406100;2023-04-15T07:03:23;10.60;99.90
9800;DHT22;4939;52.00085300;4.17406100;2023-04-15T07:05:49;10.80;99.90
9800;DHT22;4939;52.00085300;4.17406100;2023-04-15T07:08:15;10.90;99.90
9800;DHT22;4939;52.00085300;4.17406100;2023-04-15T07:10:40;10.90;99.90
9800;DHT22;4939;52.00085300;4.17406100;2023-04-15T07:13:06;10.90;99.90
9800;DHT22;4939;52.00085300;4.17406100;2023-04-15T07:15:33;11.00;99.90
9800;DHT22;4939;52.00085300;4.17406100;2023-04-15T07:17:59;11.00;99.90
9800;DHT22;4939;52.00085300;4.17406100;2023-04-15T07:20:24;11.10;99.90
9800;DHT22;4939;52.00085300;4.17406100;2023-04-15T07:25:16;11.20;99.90
9800;DHT22;4939;52.00085300;4.17406100;2023-04-15T07:27:42;11.20;99.90
9800;DHT22;4939;52.00085300;4.17406100;2023-04-15T07:30:08;11.30;99.90
9800;DHT22;4939;52.00085300;4.17406100;2023-04-15T07:32:34;11.30;99.90
9800;DHT22;4939;52.00085300;4.17406100;2023-04-15T07:35:01;11.50;99.90
9800;DHT22;4939;52.00085300;4.17406100;2023-04-15T07:37:28;11.50;99.90
9800;DHT22;4939;52.00085300;4.17406100;2023-04-15T07:39:54;11.60;99.90
9800;DHT22;4939;52.00085300;4.17406100;2023-04-15T07:42:20;11.70;90.30
9800;DHT22;4939;52.00085300;4.17406100;2023-04-15T07:44:46;11.70;92.40
9800;DHT22;4939;52.00085300;4.17406100;2023-04-15T07:47:12;11.80;28.20
9800;DHT22;4939;52.00085300;4.17406100;2023-04-15T07:49:37;12.00;29.40
9800;DHT22;4939;52.00085300;4.17406100;2023-04-15T07:52:03;12.00;1.00
9800;DHT22;4939;52.00085300;4.17406100;2023-04-15T07:54:29;12.10;1.00
9800;DHT22;4939;52.00085300;4.17406100;2023-04-15T07:56:54;12.10;1.00
9800;DHT22;4939;52.00085300;4.17406100;2023-04-15T07:59:20;12.30;1.00
9800;DHT22;4939;52.00085300;4.17406100;2023-04-15T08:01:47;12.20;1.00
9800;DHT22;4939;52.00085300;4.17406100;2023-04-15T08:04:12;12.60;1.00
9800;DHT22;4939;52.00085300;4.17406100;2023-04-15T08:06:39;12.60;1.00
9800;DHT22;4939;52.00085300;4.17406100;2023-04-15T08:09:05;12.70;1.00
9800;DHT22;4939;52.00085300;4.17406100;2023-04-15T08:11:31;12.70;99.90
9800;DHT22;4939;52.00085300;4.17406100;2023-04-15T08:13:57;12.70;99.90
9800;DHT22;4939;52.00085300;4.17406100;2023-04-15T08:16:24;12.80;99.90
9800;DHT22;4939;52.00085300;4.17406100;2023-04-15T08:18:54;12.90;99.90
9800;DHT22;4939;52.00085300;4.17406100;2023-04-15T08:21:20;12.90;1.00
9800;DHT22;4939;52.00085300;4.17406100;2023-04-15T08:23:47;12.90;1.00
9800;DHT22;4939;52.00085300;4.17406100;2023-04-15T08:26:15;12.90;1.00
9800;DHT22;4939;52.00085300;4.17406100;2023-04-15T08:28:42;13.00;1.00
9800;DHT22;4939;52.00085300;4.17406100;2023-04-15T08:31:08;13.00;1.00
9800;DHT22;4939;52.00085300;4.17406100;2023-04-15T08:33:34;13.20;99.90
9800;DHT22;4939;52.00085300;4.17406100;2023-04-15T08:36:00;13.20;1.00
9800;DHT22;4939;52.00085300;4.17406100;2023-04-15T08:40:52;13.20;99.90
9800;DHT22;4939;52.00085300;4.17406100;2023-04-15T08:43:21;13.30;1.00
9800;DHT22;4939;52.00085300;4.17406100;2023-04-15T08:45:52;13.60;1.00
9800;DHT22;4939;52.00085300;4.17406100;2023-04-15T08:48:18;13.50;99.90
9800;DHT22;4939;52.00085300;4.17406100;2023-04-15T08:50:45;13.50;1.00
9800;DHT22;4939;52.00085300;4.17406100;2023-04-15T08:53:11;13.50;19.40
9800;DHT22;4939;52.00085300;4.17406100;2023-04-15T08:55:45;13.50;1.00
9800;DHT22;4939;52.00085300;4.17406100;2023-04-15T08:58:12;13.60;1.00
9800;DHT22;4939;52.00085300;4.17406100;2023-04-15T09:00:39;13.70;99.90
9800;DHT22;4939;52.00085300;4.17406100;2023-04-15T09:03:05;13.70;1.00
9800;DHT22;4939;52.00085300;4.17406100;2023-04-15T09:05:34;13.80;1.00
9800;DHT22;4939;52.00085300;4.17406100;2023-04-15T09:08:01;13.70;1.00
9800;DHT22;4939;52.00085300;4.17406100;2023-04-15T09:10:28;13.80;1.00
9800;DHT22;4939;52.00085300;4.17406100;2023-04-15T09:12:54;13.90;99.90
9800;DHT22;4939;52.00085300;4.17406100;2023-04-15T09:15:20;14.00;1.00
9800;DHT22;4939;52.00085300;4.17406100;2023-04-15T09:17:46;14.00;1.00
9800;DHT22;4939;52.00085300;4.17406100;2023-04-15T09:20:14;12.80;1.00
9800;DHT22;4939;52.00085300;4.17406100;2023-04-15T09:22:42;14.30;1.00
9800;DHT22;4939;52.00085300;4.17406100;2023-04-15T09:28:00;14.50;99.90
9800;DHT22;4939;52.00085300;4.17406100;2023-04-15T09:30:27;14.60;99.90
9800;DHT22;4939;52.00085300;4.17406100;2023-04-15T09:32:59;14.70;99.90
9800;DHT22;4939;52.00085300;4.17406100;2023-04-15T09:35:26;14.90;72.00
9800;DHT22;4939;52.00085300;4.17406100;2023-04-15T09:37:52;15.10;24.60
9800;DHT22;4939;52.00085300;4.17406100;2023-04-15T09:40:40;15.20;1.00
9800;DHT22;4939;52.00085300;4.17406100;2023-04-15T09:43:08;15.10;1.00
9800;DHT22;4939;52.00085300;4.17406100;2023-04-15T09:45:34;15.20;1.00
9800;DHT22;4939;52.00085300;4.17406100;2023-04-15T09:48:20;15.40;1.00
9800;DHT22;4939;52.00085300;4.17406100;2023-04-15T09:50:50;15.70;99.90
9800;DHT22;4939;52.00085300;4.17406100;2023-04-15T09:53:19;16.00;99.90
9800;DHT22;4939;52.00085300;4.17406100;2023-04-15T09:55:49;15.90;1.00
9800;DHT22;4939;52.00085300;4.17406100;2023-04-15T10:00:49;15.80;1.00
9800;DHT22;4939;52.00085300;4.17406100;2023-04-15T10:03:23;15.80;1.00
9800;DHT22;4939;52.00085300;4.17406100;2023-04-15T10:05:51;16.20;99.90
9800;DHT22;4939;52.00085300;4.17406100;2023-04-15T10:08:28;16.40;99.90
9800;DHT22;4939;52.00085300;4.17406100;2023-04-15T10:10:54;16.70;99.90
9800;DHT22;4939;52.00085300;4.17406100;2023-04-15T10:13:25;16.50;99.90
9800;DHT22;4939;52.00085300;4.17406100;2023-04-15T10:16:11;16.40;99.90
9800;DHT22;4939;52.00085300;4.17406100;2023-04-15T10:18:42;16.50;99.90
9800;DHT22;4939;52.00085300;4.17406100;2023-04-15T10:21:08;16.70;99.90
9800;DHT22;4939;52.00085300;4.17406100;2023-04-15T10:23:34;16.50;99.90
9800;DHT22;4939;52.00085300;4.17406100;2023-04-15T10:26:00;16.40;99.90
9800;DHT22;4939;52.00085300;4.17406100;2023-04-15T10:28:27;16.30;99.90
9800;DHT22;4939;52.00085300;4.17406100;2023-04-15T10:30:53;16.20;99.90
9800;DHT22;4939;52.00085300;4.17406100;2023-04-15T10:33:21;15.80;99.90
9800;DHT22;4939;52.00085300;4.17406100;2023-04-15T10:35:48;16.00;99.90
9800;DHT22;4939;52.00085300;4.17406100;2023-04-15T10:38:36;15.80;99.90
9800;DHT22;4939;52.00085300;4.17406100;2023-04-15T10:41:31;15.70;45.60
9800;DHT22;4939;52.00085300;4.17406100;2023-04-15T10:43:59;15.40;28.60
9800;DHT22;4939;52.00085300;4.17406100;2023-04-15T10:46:39;15.60;69.00
9800;DHT22;4939;52.00085300;4.17406100;2023-04-15T10:49:16;15.60;27.40
9800;DHT22;4939;52.00085300;4.17406100;2023-04-15T10:51:45;15.60;1.00
9800;DHT22;4939;52.00085300;4.17406100;2023-04-15T10:54:31;15.40;1.00
9800;DHT22;4939;52.00085300;4.17406100;2023-04-15T10:59:36;15.30;1.00
9800;DHT22;4939;52.00085300;4.17406100;2023-04-15T11:02:04;15.30;1.00
9800;DHT22;4939;52.00085300;4.17406100;2023-04-15T11:07:37;15.20;1.00
9800;DHT22;4939;52.00085300;4.17406100;2023-04-15T11:13:19;15.10;90.90
9800;DHT22;4939;52.00085300;4.17406100;2023-04-15T11:15:44;15.10;94.00
9800;DHT22;4939;52.00085300;4.17406100;2023-04-15T11:23:16;14.90;99.90
9800;DHT22;4939;52.00085300;4.17406100;2023-04-15T11:25:42;14.60;1.00
9800;DHT22;4939;52.00085300;4.17406100;2023-04-15T11:28:09;14.50;1.00
9800;DHT22;4939;52.00085300;4.17406100;2023-04-15T11:30:36;14.40;1.00
9800;DHT22;4939;52.00085300;4.17406100;2023-04-15T11:33:09;14.40;99.90
9800;DHT22;4939;52.00085300;4.17406100;2023-04-15T11:35:40;14.50;99.90
9800;DHT22;4939;52.00085300;4.17406100;2023-04-15T11:38:11;14.60;1.00
9800;DHT22;4939;52.00085300;4.17406100;2023-04-15T11:40:38;14.90;1.00
9800;DHT22;4939;52.00085300;4.17406100;2023-04-15T11:43:30;14.90;1.00
9800;DHT22;4939;52.00085300;4.17406100;2023-04-15T11:46:00;14.80;1.00
9800;DHT22;4939;52.00085300;4.17406100;2023-04-15T11:48:27;14.30;99.90
9800;DHT22;4939;52.00085300;4.17406100;2023-04-15T11:51:03;14.20;63.90
9800;DHT22;4939;52.00085300;4.17406100;2023-04-15T11:53:47;14.20;1.00
9800;DHT22;4939;52.00085300;4.17406100;2023-04-15T11:56:31;14.40;99.90
9800;DHT22;4939;52.00085300;4.17406100;2023-04-15T11:58:58;14.40;99.90
9800;DHT22;4939;52.00085300;4.17406100;2023-04-15T12:01:33;14.30;19.40
9800;DHT22;4939;52.00085300;4.17406100;2023-04-15T12:03:59;14.20;1.00
9800;DHT22;4939;52.00085300;4.17406100;2023-04-15T12:06:31;14.00;1.00
9800;DHT22;4939;52.00085300;4.17406100;2023-04-15T12:11:32;14.10;29.60
9800;DHT22;4939;52.00085300;4.17406100;2023-04-15T12:14:05;14.10;58.30
9800;DHT22;4939;52.00085300;4.17406100;2023-04-15T12:16:34;14.20;1.00
9800;DHT22;4939;52.00085300;4.17406100;2023-04-15T12:19:04;14.20;1.00
9800;DHT22;4939;52.00085300;4.17406100;2023-04-15T12:21:34;14.50;7.80
9800;DHT22;4939;52.00085300;4.17406100;2023-04-15T12:24:02;14.40;1.00
9800;DHT22;4939;52.00085300;4.17406100;2023-04-15T12:29:10;13.60;99.90
9800;DHT22;4939;52.00085300;4.17406100;2023-04-15T12:31:43;13.60;99.90
9800;DHT22;4939;52.00085300;4.17406100;2023-04-15T12:34:10;13.60;99.90
9800;DHT22;4939;52.00085300;4.17406100;2023-04-15T12:36:36;13.60;1.00
9800;DHT22;4939;52.00085300;4.17406100;2023-04-15T12:39:03;13.60;99.90
9800;DHT22;4939;52.00085300;4.17406100;2023-04-15T12:41:30;13.60;1.00
9800;DHT22;4939;52.00085300;4.17406100;2023-04-15T12:43:55;13.40;99.90
9800;DHT22;4939;52.00085300;4.17406100;2023-04-15T12:46:21;13.50;99.90
9800;DHT22;4939;52.00085300;4.17406100;2023-04-15T12:48:47;13.90;1.00
9800;DHT22;4939;52.00085300;4.17406100;2023-04-15T12:51:13;13.50;1.00
9800;DHT22;4939;52.00085300;4.17406100;2023-04-15T12:53:38;13.70;1.00
9800;DHT22;4939;52.00085300;4.17406100;2023-04-15T12:56:04;13.50;1.00
9800;DHT22;4939;52.00085300;4.17406100;2023-04-15T12:58:31;13.40;90.10
9800;DHT22;4939;52.00085300;4.17406100;2023-04-15T13:00:56;13.40;80.80
9800;DHT22;4939;52.00085300;4.17406100;2023-04-15T13:03:22;13.00;99.90
9800;DHT22;4939;52.00085300;4.17406100;2023-04-15T13:05:48;9.30;1.00
9800;DHT22;4939;52.00085300;4.17406100;2023-04-15T13:08:14;14.80;1.00
9800;DHT22;4939;52.00085300;4.17406100;2023-04-15T13:10:40;13.30;1.00
9800;DHT22;4939;52.00085300;4.17406100;2023-04-15T13:13:07;13.20;1.00
9800;DHT22;4939;52.00085300;4.17406100;2023-04-15T13:15:33;13.30;1.00
9800;DHT22;4939;52.00085300;4.17406100;2023-04-15T13:20:25;13.60;99.90
9800;DHT22;4939;52.00085300;4.17406100;2023-04-15T13:22:53;13.60;99.90
9800;DHT22;4939;52.00085300;4.17406100;2023-04-15T13:25:19;13.40;47.90
9800;DHT22;4939;52.00085300;4.17406100;2023-04-15T13:27:45;13.50;99.90
9800;DHT22;4939;52.00085300;4.17406100;2023-04-15T13:30:11;13.80;99.90
9800;DHT22;4939;52.00085300;4.17406100;2023-04-15T13:32:36;14.20;45.20
9800;DHT22;4939;52.00085300;4.17406100;2023-04-15T13:35:02;13.80;1.00
9800;DHT22;4939;52.00085300;4.17406100;2023-04-15T13:37:29;13.80;99.90
9800;DHT22;4939;52.00085300;4.17406100;2023-04-15T13:39:55;13.80;99.90
9800;DHT22;4939;52.00085300;4.17406100;2023-04-15T13:42:22;13.90;99.90
9800;DHT22;4939;52.00085300;4.17406100;2023-04-15T13:44:51;13.70;99.90
9800;DHT22;4939;52.00085300;4.17406100;2023-04-15T13:47:20;13.90;1.00
9800;DHT22;4939;52.00085300;4.17406100;2023-04-15T13:49:46;14.30;99.90
9800;DHT22;4939;52.00085300;4.17406100;2023-04-15T13:52:11;14.60;99.90
9800;DHT22;4939;52.00085300;4.17406100;2023-04-15T13:54:37;14.60;99.90
9800;DHT22;4939;52.00085300;4.17406100;2023-04-15T13:57:04;14.60;99.90
9800;DHT22;4939;52.00085300;4.17406100;2023-04-15T13:59:30;15.00;1.00
9800;DHT22;4939;52.00085300;4.17406100;2023-04-15T14:01:55;15.10;99.90
9800;DHT22;4939;52.00085300;4.17406100;2023-04-15T14:04:21;14.90;1.00
9800;DHT22;4939;52.00085300;4.17406100;2023-04-15T14:06:47;14.90;1.00
9800;DHT22;4939;52.00085300;4.17406100;2023-04-15T14:09:14;14.70;1.00
9800;DHT22;4939;52.00085300;4.17406100;2023-04-15T14:11:40;14.80;77.40
9800;DHT22;4939;52.00085300;4.17406100;2023-04-15T14:14:05;14.50;1.00
9800;DHT22;4939;52.00085300;4.17406100;2023-04-15T14:16:32;14.70;99.90
9800;DHT22;4939;52.00085300;4.17406100;2023-04-15T14:18:58;14.70;1.00
9800;DHT22;4939;52.00085300;4.17406100;2023-04-15T14:21:24;14.90;1.00
9800;DHT22;4939;52.00085300;4.17406100;2023-04-15T14:23:52;14.70;1.00
9800;DHT22;4939;52.00085300;4.17406100;2023-04-15T14:26:18;14.80;57.20
9800;DHT22;4939;52.00085300;4.17406100;2023-04-15T14:28:44;14.50;1.00
9800;DHT22;4939;52.00085300;4.17406100;2023-04-15T14:31:10;14.50;99.90
9800;DHT22;4939;52.00085300;4.17406100;2023-04-15T14:33:36;14.40;99.90
9800;DHT22;4939;52.00085300;4.17406100;2023-04-15T14:36:02;14.10;99.90
9800;DHT22;4939;52.00085300;4.17406100;2023-04-15T14:38:28;14.30;99.90
9800;DHT22;4939;52.00085300;4.17406100;2023-04-15T14:40:54;14.50;1.00
9800;DHT22;4939;52.00085300;4.17406100;2023-04-15T14:43:20;14.40;99.90
9800;DHT22;4939;52.00085300;4.17406100;2023-04-15T14:45:45;14.30;99.90
9800;DHT22;4939;52.00085300;4.17406100;2023-04-15T14:48:11;14.40;99.90
9800;DHT22;4939;52.00085300;4.17406100;2023-04-15T14:50:37;14.30;99.90
9800;DHT22;4939;52.00085300;4.17406100;2023-04-15T14:53:03;14.60;99.90
9800;DHT22;4939;52.00085300;4.17406100;2023-04-15T14:55:29;14.60;99.90
9800;DHT22;4939;52.00085300;4.17406100;2023-04-15T14:57:55;14.90;99.90
9800;DHT22;4939;52.00085300;4.17406100;2023-04-15T15:00:20;14.50;42.00